createdAt,value
2018-09-24T00:00:28.192Z,996.50
2018-09-24T00:01:28.415Z,996.49
2018-09-24T00:02:28.642Z,996.50
2018-09-24T00:03:28.867Z,996.54
2018-09-24T00:04:29.090Z,996.57
2018-09-24T00:05:29.315Z,996.59
2018-09-24T00:06:29.536Z,996.64
2018-09-24T00:07:29.760Z,996.69
2018-09-24T00:08:29.987Z,996.67
2018-09-24T00:09:30.210Z,996.76
2018-09-24T00:10:30.439Z,996.81
2018-09-24T00:11:30.667Z,996.76
2018-09-24T00:12:30.888Z,996.79
2018-09-24T00:13:31.110Z,996.76
2018-09-24T00:14:31.339Z,996.75
2018-09-24T00:15:31.560Z,996.76
2018-09-24T00:16:31.787Z,996.83
2018-09-24T00:17:32.013Z,996.83
2018-09-24T00:18:32.233Z,996.88
2018-09-24T00:19:32.458Z,996.88
2018-09-24T00:20:32.683Z,996.85
2018-09-24T00:21:32.908Z,996.92
2018-09-24T00:22:33.138Z,996.96
2018-09-24T00:23:33.356Z,996.95
2018-09-24T00:24:33.582Z,997.02
2018-09-24T00:25:33.803Z,997.03
2018-09-24T00:26:34.032Z,997.00
2018-09-24T00:27:34.252Z,997.03
2018-09-24T00:28:34.473Z,997.08
2018-09-24T00:29:34.701Z,997.08
2018-09-24T00:30:34.926Z,997.17
2018-09-24T00:31:35.148Z,997.12
2018-09-24T00:32:35.372Z,997.16
2018-09-24T00:33:35.595Z,997.19
2018-09-24T00:34:35.823Z,997.25
2018-09-24T00:35:36.048Z,997.21
2018-09-24T00:36:36.271Z,997.25
2018-09-24T00:37:36.498Z,997.33
2018-09-24T00:38:36.721Z,997.42
2018-09-24T00:39:36.946Z,997.43
2018-09-24T00:40:37.171Z,997.50
2018-09-24T00:41:37.402Z,997.50
2018-09-24T00:42:37.621Z,997.51
2018-09-24T00:43:37.847Z,997.56
2018-09-24T00:44:38.073Z,997.61
2018-09-24T00:45:38.316Z,997.62
2018-09-24T00:46:38.525Z,997.62
2018-09-24T00:47:38.746Z,997.69
2018-09-24T00:48:38.971Z,997.70
2018-09-24T00:49:39.185Z,997.71
2018-09-24T00:50:39.385Z,997.70
2018-09-24T00:51:39.612Z,997.74
2018-09-24T00:52:39.835Z,997.80
2018-09-24T00:53:40.059Z,997.81
2018-09-24T00:54:40.284Z,997.74
2018-09-24T00:55:40.507Z,997.80
2018-09-24T00:56:40.735Z,997.76
2018-09-24T00:57:40.960Z,997.75
2018-09-24T00:58:41.192Z,997.76
2018-09-24T00:59:41.400Z,997.80
2018-09-24T01:00:41.618Z,997.80
2018-09-24T01:01:41.842Z,997.86
2018-09-24T01:02:42.067Z,997.87
2018-09-24T01:03:42.292Z,997.90
2018-09-24T01:04:42.519Z,997.89
2018-09-24T01:05:42.743Z,997.89
2018-09-24T01:06:42.964Z,997.91
2018-09-24T01:07:43.182Z,997.87
2018-09-24T01:08:43.409Z,997.91
2018-09-24T01:09:43.636Z,997.88
2018-09-24T01:10:43.864Z,997.97
2018-09-24T01:11:44.086Z,997.96
2018-09-24T01:12:44.312Z,997.92
2018-09-24T01:13:44.539Z,997.91
2018-09-24T01:14:44.763Z,997.90
2018-09-24T01:15:44.994Z,997.98
2018-09-24T01:16:45.215Z,997.97
2018-09-24T01:17:45.439Z,998.01
2018-09-24T01:18:45.668Z,998.03
2018-09-24T01:19:45.894Z,998.00
2018-09-24T01:20:46.118Z,998.04
2018-09-24T01:21:46.342Z,998.06
2018-09-24T01:22:46.570Z,998.13
2018-09-24T01:23:46.794Z,998.13
2018-09-24T01:24:47.020Z,998.16
2018-09-24T01:25:47.247Z,998.17
2018-09-24T01:26:47.475Z,998.25
2018-09-24T01:27:47.699Z,998.25
2018-09-24T01:28:47.925Z,998.24
2018-09-24T01:29:48.154Z,998.24
2018-09-24T01:30:48.376Z,998.20
2018-09-24T01:31:48.599Z,998.22
2018-09-24T01:32:48.825Z,998.24
2018-09-24T01:33:49.051Z,998.22
2018-09-24T01:34:49.276Z,998.28
2018-09-24T01:35:49.501Z,998.23
2018-09-24T01:36:49.725Z,998.31
2018-09-24T01:37:49.953Z,998.30
2018-09-24T01:38:50.181Z,998.31
2018-09-24T01:39:50.410Z,998.31
2018-09-24T01:40:50.629Z,998.32
2018-09-24T01:41:50.856Z,998.34
2018-09-24T01:42:51.080Z,998.40
2018-09-24T01:43:51.305Z,998.45
2018-09-24T01:44:51.531Z,998.45
2018-09-24T01:45:51.754Z,998.44
2018-09-24T01:46:51.981Z,998.41
2018-09-24T01:47:52.206Z,998.42
2018-09-24T01:48:52.432Z,998.40
2018-09-24T01:49:52.658Z,998.43
2018-09-24T01:50:52.890Z,998.45
2018-09-24T01:51:53.108Z,998.45
2018-09-24T01:52:53.332Z,998.46
2018-09-24T01:53:53.561Z,998.46
2018-09-24T01:54:53.784Z,998.48
2018-09-24T01:55:54.010Z,998.46
2018-09-24T01:56:54.235Z,998.45
2018-09-24T01:57:54.460Z,998.48
2018-09-24T01:58:54.682Z,998.47
2018-09-24T01:59:54.909Z,998.50
2018-09-24T02:00:55.134Z,998.52
2018-09-24T02:01:55.361Z,998.61
2018-09-24T02:02:55.582Z,998.60
2018-09-24T02:03:55.811Z,998.62
2018-09-24T02:04:56.036Z,998.64
2018-09-24T02:05:56.260Z,998.62
2018-09-24T02:06:56.488Z,998.63
2018-09-24T02:07:56.712Z,998.65
2018-09-24T02:08:56.937Z,998.67
2018-09-24T02:09:57.162Z,998.68
2018-09-24T02:10:57.390Z,998.73
2018-09-24T02:11:57.613Z,998.71
2018-09-24T02:12:57.839Z,998.73
2018-09-24T02:13:58.066Z,998.71
2018-09-24T02:14:58.294Z,998.77
2018-09-24T02:15:58.527Z,998.78
2018-09-24T02:16:58.747Z,998.81
2018-09-24T02:17:58.974Z,998.82
2018-09-24T02:18:59.198Z,998.85
2018-09-24T02:19:59.425Z,998.84
2018-09-24T02:20:59.653Z,998.86
2018-09-24T02:21:59.883Z,998.87
2018-09-24T02:23:00.104Z,998.89
2018-09-24T02:24:00.331Z,998.92
2018-09-24T02:25:00.555Z,998.88
2018-09-24T02:26:00.783Z,998.91
2018-09-24T02:27:01.006Z,998.90
2018-09-24T02:28:01.231Z,998.90
2018-09-24T02:29:01.473Z,998.88
2018-09-24T02:30:01.684Z,998.88
2018-09-24T02:31:01.908Z,998.87
2018-09-24T02:32:02.135Z,998.91
2018-09-24T02:33:02.367Z,998.95
2018-09-24T02:34:02.587Z,998.99
2018-09-24T02:35:02.814Z,998.94
2018-09-24T02:36:03.034Z,998.97
2018-09-24T02:37:03.258Z,998.99
2018-09-24T02:38:03.482Z,998.99
2018-09-24T02:39:03.710Z,998.99
2018-09-24T02:40:03.937Z,999.03
2018-09-24T02:41:04.161Z,999.03
2018-09-24T02:42:04.385Z,999.08
2018-09-24T02:43:04.607Z,999.11
2018-09-24T02:44:04.834Z,999.09
2018-09-24T02:45:05.060Z,999.14
2018-09-24T02:46:05.291Z,999.18
2018-09-24T02:47:05.511Z,999.23
2018-09-24T02:48:05.737Z,999.25
2018-09-24T02:49:05.961Z,999.29
2018-09-24T02:50:06.186Z,999.36
2018-09-24T02:51:06.412Z,999.38
2018-09-24T02:52:06.636Z,999.38
2018-09-24T02:53:06.864Z,999.37
2018-09-24T02:54:07.088Z,999.42
2018-09-24T02:55:07.310Z,999.47
2018-09-24T02:56:07.533Z,999.45
2018-09-24T02:57:07.754Z,999.50
2018-09-24T02:58:07.977Z,999.55
2018-09-24T02:59:08.208Z,999.53
2018-09-24T03:00:08.426Z,999.59
2018-09-24T03:01:08.658Z,999.57
2018-09-24T03:02:08.876Z,999.61
2018-09-24T03:03:09.096Z,999.62
2018-09-24T03:04:09.323Z,999.61
2018-09-24T03:05:09.560Z,999.65
2018-09-24T03:06:09.773Z,999.63
2018-09-24T03:07:09.995Z,999.63
2018-09-24T03:08:10.225Z,999.65
2018-09-24T03:09:10.453Z,999.69
2018-09-24T03:10:10.675Z,999.73
2018-09-24T03:11:10.902Z,999.70
2018-09-24T03:12:11.128Z,999.79
2018-09-24T03:13:11.353Z,999.80
2018-09-24T03:14:11.577Z,999.85
2018-09-24T03:15:11.804Z,999.84
2018-09-24T03:16:12.029Z,999.81
2018-09-24T03:17:12.250Z,999.82
2018-09-24T03:18:12.474Z,999.89
2018-09-24T03:19:12.706Z,999.92
2018-09-24T03:20:12.931Z,999.92
2018-09-24T03:21:13.157Z,1000.06
2018-09-24T03:22:13.381Z,1000.05
2018-09-24T03:23:13.609Z,1000.08
2018-09-24T03:24:13.871Z,1000.11
2018-09-24T03:25:14.057Z,1000.20
2018-09-24T03:26:14.293Z,1000.15
2018-09-24T03:27:14.513Z,1000.19
2018-09-24T03:28:14.732Z,1000.15
2018-09-24T03:29:14.956Z,1000.19
2018-09-24T03:30:15.184Z,1000.20
2018-09-24T03:31:15.405Z,1000.24
2018-09-24T03:32:15.631Z,1000.25
2018-09-24T03:33:15.860Z,1000.30
2018-09-24T03:34:16.081Z,1000.22
2018-09-24T03:35:16.307Z,1000.26
2018-09-24T03:36:16.535Z,1000.26
2018-09-24T03:37:16.754Z,1000.30
2018-09-24T03:38:16.979Z,1000.27
2018-09-24T03:39:17.205Z,1000.22
2018-09-24T03:40:17.432Z,1000.26
2018-09-24T03:41:17.658Z,1000.22
2018-09-24T03:42:17.880Z,1000.24
2018-09-24T03:43:18.108Z,1000.20
2018-09-24T03:44:18.330Z,1000.20
2018-09-24T03:45:18.556Z,1000.17
2018-09-24T03:46:18.783Z,1000.20
2018-09-24T03:47:19.006Z,1000.22
2018-09-24T03:48:19.233Z,1000.17
2018-09-24T03:49:19.454Z,1000.15
2018-09-24T03:50:19.680Z,1000.14
2018-09-24T03:51:19.905Z,1000.22
2018-09-24T03:52:20.131Z,1000.19
2018-09-24T03:53:20.356Z,1000.20
2018-09-24T03:54:20.586Z,1000.25
2018-09-24T03:55:20.801Z,1000.22
2018-09-24T03:56:21.028Z,1000.23
2018-09-24T03:57:21.253Z,1000.25
2018-09-24T03:58:21.478Z,1000.30
2018-09-24T03:59:21.704Z,1000.30
2018-09-24T04:00:21.924Z,1000.29
2018-09-24T04:01:22.146Z,1000.33
2018-09-24T04:02:22.390Z,1000.35
2018-09-24T04:03:22.616Z,1000.31
2018-09-24T04:04:22.843Z,1000.34
2018-09-24T04:05:23.067Z,1000.33
2018-09-24T04:06:23.290Z,1000.35
2018-09-24T04:07:23.514Z,1000.38
2018-09-24T04:08:23.739Z,1000.37
2018-09-24T04:09:23.978Z,1000.39
2018-09-24T04:10:24.191Z,1000.37
2018-09-24T04:11:24.419Z,1000.43
2018-09-24T04:12:24.643Z,1000.40
2018-09-24T04:13:24.863Z,1000.41
2018-09-24T04:14:25.088Z,1000.42
2018-09-24T04:15:25.311Z,1000.44
2018-09-24T04:16:25.534Z,1000.46
2018-09-24T04:17:25.759Z,1000.52
2018-09-24T04:18:26.021Z,1000.52
2018-09-24T04:19:26.277Z,1000.51
2018-09-24T04:20:26.472Z,1000.49
2018-09-24T04:21:26.702Z,1000.51
2018-09-24T04:22:26.923Z,1000.54
2018-09-24T04:23:27.148Z,1000.55
2018-09-24T04:24:27.373Z,1000.57
2018-09-24T04:25:27.601Z,1000.61
2018-09-24T04:26:27.827Z,1000.57
2018-09-24T04:27:28.052Z,1000.60
2018-09-24T04:28:28.277Z,1000.59
2018-09-24T04:29:28.503Z,1000.62
2018-09-24T04:30:28.728Z,1000.60
2018-09-24T04:31:28.952Z,1000.63
2018-09-24T04:32:29.176Z,1000.61
2018-09-24T04:33:29.404Z,1000.64
2018-09-24T04:34:29.628Z,1000.61
2018-09-24T04:35:29.855Z,1000.64
2018-09-24T04:36:30.078Z,1000.61
2018-09-24T04:37:30.303Z,1000.63
2018-09-24T04:38:30.529Z,1000.64
2018-09-24T04:39:30.810Z,1000.67
2018-09-24T04:40:30.977Z,1000.72
2018-09-24T04:41:31.202Z,1000.71
2018-09-24T04:42:31.429Z,1000.71
2018-09-24T04:43:31.652Z,1000.72
2018-09-24T04:44:31.879Z,1000.74
2018-09-24T04:45:32.101Z,1000.71
2018-09-24T04:46:32.328Z,1000.74
2018-09-24T04:47:32.555Z,1000.73
2018-09-24T04:48:32.774Z,1000.80
2018-09-24T04:49:32.999Z,1000.76
2018-09-24T04:50:33.222Z,1000.79
2018-09-24T04:51:33.447Z,1000.79
2018-09-24T04:52:33.678Z,1000.80
2018-09-24T04:53:33.898Z,1000.80
2018-09-24T04:54:34.125Z,1000.79
2018-09-24T04:55:34.350Z,1000.80
2018-09-24T04:56:34.576Z,1000.85
2018-09-24T04:57:34.803Z,1000.89
2018-09-24T04:58:35.034Z,1000.92
2018-09-24T04:59:35.252Z,1000.98
2018-09-24T05:00:35.473Z,1001.05
2018-09-24T05:01:35.700Z,1001.09
2018-09-24T05:02:35.927Z,1001.15
2018-09-24T05:03:36.151Z,1001.15
2018-09-24T05:04:36.376Z,1001.14
2018-09-24T05:05:36.603Z,1001.08
2018-09-24T05:06:36.829Z,1001.06
2018-09-24T05:07:37.059Z,1001.03
2018-09-24T05:08:37.283Z,1001.01
2018-09-24T05:09:37.511Z,1000.99
2018-09-24T05:10:37.737Z,1000.99
2018-09-24T05:11:37.959Z,1001.03
2018-09-24T05:12:38.187Z,1001.00
2018-09-24T05:13:38.412Z,1001.01
2018-09-24T05:14:38.635Z,1001.04
2018-09-24T05:15:38.859Z,1001.06
2018-09-24T05:16:39.137Z,1001.08
2018-09-24T05:17:39.315Z,1001.06
2018-09-24T05:18:39.536Z,1001.07
2018-09-24T05:19:39.761Z,1001.08
2018-09-24T05:20:39.988Z,1001.08
2018-09-24T05:21:40.212Z,1001.06
2018-09-24T05:22:40.439Z,1001.07
2018-09-24T05:23:40.663Z,1001.07
2018-09-24T05:24:40.891Z,1001.07
2018-09-24T05:25:41.115Z,1001.12
2018-09-24T05:26:41.330Z,1001.16
2018-09-24T05:27:41.553Z,1001.19
2018-09-24T05:28:41.779Z,1001.26
2018-09-24T05:29:42.007Z,1001.26
2018-09-24T05:30:42.232Z,1001.31
2018-09-24T05:31:42.460Z,1001.33
2018-09-24T05:32:42.684Z,1001.35
2018-09-24T05:33:42.911Z,1001.35
2018-09-24T05:34:43.134Z,1001.36
2018-09-24T05:35:43.360Z,1001.41
2018-09-24T05:36:43.588Z,1001.41
2018-09-24T05:37:43.814Z,1001.42
2018-09-24T05:38:44.043Z,1001.39
2018-09-24T05:39:44.263Z,1001.42
2018-09-24T05:40:44.492Z,1001.50
2018-09-24T05:41:44.718Z,1001.50
2018-09-24T05:42:44.941Z,1001.51
2018-09-24T05:43:45.167Z,1001.54
2018-09-24T05:44:45.399Z,1001.57
2018-09-24T05:45:45.621Z,1001.60
2018-09-24T05:46:45.845Z,1001.64
2018-09-24T05:47:46.087Z,1001.65
2018-09-24T05:48:46.295Z,1001.71
2018-09-24T05:49:46.557Z,1001.74
2018-09-24T05:50:46.781Z,1001.76
2018-09-24T05:51:47.005Z,1001.76
2018-09-24T05:52:47.231Z,1001.83
2018-09-24T05:53:47.457Z,1001.84
2018-09-24T05:54:47.690Z,1001.87
2018-09-24T05:55:47.908Z,1001.85
2018-09-24T05:56:48.193Z,1001.91
2018-09-24T05:57:48.430Z,1001.91
2018-09-24T05:58:48.657Z,1001.98
2018-09-24T05:59:48.884Z,1002.04
2018-09-24T06:00:49.110Z,1002.06
2018-09-24T06:01:49.335Z,1002.09
2018-09-24T06:02:49.562Z,1002.15
2018-09-24T06:03:49.786Z,1002.13
2018-09-24T06:04:50.013Z,1002.16
2018-09-24T06:05:50.240Z,1002.20
2018-09-24T06:06:50.465Z,1002.19
2018-09-24T06:07:50.692Z,1002.24
2018-09-24T06:08:50.917Z,1002.27
2018-09-24T06:09:51.142Z,1002.33
2018-09-24T06:10:51.368Z,1002.37
2018-09-24T06:11:51.597Z,1002.33
2018-09-24T06:12:51.823Z,1002.31
2018-09-24T06:13:52.050Z,1002.32
2018-09-24T06:14:52.276Z,1002.34
2018-09-24T06:15:52.506Z,1002.33
2018-09-24T06:16:52.731Z,1002.39
2018-09-24T06:17:52.980Z,1002.43
2018-09-24T06:18:53.214Z,1002.47
2018-09-24T06:19:53.413Z,1002.44
2018-09-24T06:20:53.635Z,1002.50
2018-09-24T06:21:53.860Z,1002.53
2018-09-24T06:22:54.089Z,1002.55
2018-09-24T06:23:54.313Z,1002.57
2018-09-24T06:24:54.543Z,1002.58
2018-09-24T06:25:54.770Z,1002.64
2018-09-24T06:26:54.993Z,1002.65
2018-09-24T06:27:55.217Z,1002.68
2018-09-24T06:28:55.443Z,1002.64
2018-09-24T06:29:55.674Z,1002.55
2018-09-24T06:30:55.898Z,1002.61
2018-09-24T06:31:56.123Z,1002.64
2018-09-24T06:32:56.352Z,1002.59
2018-09-24T06:33:56.580Z,1002.59
2018-09-24T06:34:56.806Z,1002.64
2018-09-24T06:35:57.033Z,1002.68
2018-09-24T06:36:57.263Z,1002.76
2018-09-24T06:37:57.485Z,1002.76
2018-09-24T06:38:57.712Z,1002.80
2018-09-24T06:39:57.962Z,1002.79
2018-09-24T06:40:58.165Z,1002.85
2018-09-24T06:41:58.392Z,1002.82
2018-09-24T06:42:58.619Z,1002.79
2018-09-24T06:43:58.843Z,1002.84
2018-09-24T06:44:59.071Z,1002.83
2018-09-24T06:45:59.294Z,1002.82
2018-09-24T06:46:59.520Z,1002.84
2018-09-24T06:47:59.748Z,1002.92
2018-09-24T06:48:59.974Z,1002.88
2018-09-24T06:50:00.202Z,1002.94
2018-09-24T06:51:00.428Z,1002.91
2018-09-24T06:52:00.655Z,1002.94
2018-09-24T06:53:00.881Z,1002.97
2018-09-24T06:54:01.109Z,1002.98
2018-09-24T06:55:01.336Z,1003.02
2018-09-24T06:56:01.559Z,1003.05
2018-09-24T06:57:01.791Z,1003.01
2018-09-24T06:58:02.015Z,1003.01
2018-09-24T06:59:02.240Z,1003.08
2018-09-24T07:00:02.467Z,1003.07
2018-09-24T07:01:02.692Z,1003.01
2018-09-24T07:02:02.922Z,1003.05
2018-09-24T07:03:03.148Z,1003.11
2018-09-24T07:04:03.379Z,1003.10
2018-09-24T07:05:03.604Z,1003.14
2018-09-24T07:06:03.828Z,1003.11
2018-09-24T07:07:04.056Z,1003.19
2018-09-24T07:08:04.282Z,1003.17
2018-09-24T07:09:04.509Z,1003.16
2018-09-24T07:10:04.735Z,1003.23
2018-09-24T07:11:04.959Z,1003.26
2018-09-24T07:12:05.185Z,1003.26
2018-09-24T07:13:05.410Z,1003.28
2018-09-24T07:14:05.637Z,1003.32
2018-09-24T07:15:05.856Z,1003.32
2018-09-24T07:16:06.084Z,1003.33
2018-09-24T07:17:06.311Z,1003.32
2018-09-24T07:18:06.537Z,1003.32
2018-09-24T07:19:06.763Z,1003.42
2018-09-24T07:20:06.990Z,1003.46
2018-09-24T07:21:07.212Z,1003.46
2018-09-24T07:22:07.440Z,1003.48
2018-09-24T07:23:07.667Z,1003.50
2018-09-24T07:24:07.898Z,1003.55
2018-09-24T07:25:08.130Z,1003.55
2018-09-24T07:26:08.358Z,1003.55
2018-09-24T07:27:08.583Z,1003.50
2018-09-24T07:28:08.881Z,1003.60
2018-09-24T07:29:09.037Z,1003.63
2018-09-24T07:30:09.263Z,1003.62
2018-09-24T07:31:09.488Z,1003.67
2018-09-24T07:32:09.716Z,1003.68
2018-09-24T07:33:09.964Z,1003.74
2018-09-24T07:34:10.174Z,1003.78
2018-09-24T07:35:10.397Z,1003.77
2018-09-24T07:36:10.623Z,1003.74
2018-09-24T07:37:10.850Z,1003.77
2018-09-24T07:38:11.076Z,1003.80
2018-09-24T07:39:11.304Z,1003.78
2018-09-24T07:40:11.532Z,1003.85
2018-09-24T07:41:11.755Z,1003.89
2018-09-24T07:42:11.982Z,1003.85
2018-09-24T07:43:12.277Z,1003.87
2018-09-24T07:44:12.436Z,1003.89
2018-09-24T07:45:12.665Z,1003.91
2018-09-24T07:46:12.891Z,1003.95
2018-09-24T07:47:13.117Z,1003.97
2018-09-24T07:48:13.357Z,1003.90
2018-09-24T07:49:13.577Z,1003.91
2018-09-24T07:50:13.802Z,1003.95
2018-09-24T07:51:14.036Z,1003.96
2018-09-24T07:52:14.257Z,1003.95
2018-09-24T07:53:14.475Z,1003.95
2018-09-24T07:54:14.699Z,1003.94
2018-09-24T07:55:14.941Z,1004.00
2018-09-24T07:56:15.153Z,1003.98
2018-09-24T07:57:15.379Z,1003.99
2018-09-24T07:58:15.611Z,1003.98
2018-09-24T07:59:15.835Z,1003.96
2018-09-24T08:00:16.062Z,1004.02
2018-09-24T08:01:16.290Z,1004.05
2018-09-24T08:02:16.517Z,1004.07
2018-09-24T08:03:16.745Z,1004.12
2018-09-24T08:04:16.972Z,1004.07
2018-09-24T08:05:17.203Z,1004.10
2018-09-24T08:06:17.426Z,1004.17
2018-09-24T08:07:17.687Z,1004.18
2018-09-24T08:08:17.885Z,1004.18
2018-09-24T08:09:18.110Z,1004.16
2018-09-24T08:10:18.336Z,1004.14
2018-09-24T08:11:18.565Z,1004.14
2018-09-24T08:12:18.792Z,1004.22
2018-09-24T08:13:19.090Z,1004.21
2018-09-24T08:14:19.242Z,1004.26
2018-09-24T08:15:19.469Z,1004.30
2018-09-24T08:16:19.695Z,1004.25
2018-09-24T08:17:19.923Z,1004.29
2018-09-24T08:18:20.150Z,1004.32
2018-09-24T08:19:20.403Z,1004.34
2018-09-24T08:20:20.608Z,1004.40
2018-09-24T08:21:20.832Z,1004.38
2018-09-24T08:22:21.059Z,1004.38
2018-09-24T08:23:21.285Z,1004.41
2018-09-24T08:24:21.515Z,1004.45
2018-09-24T08:25:21.743Z,1004.39
2018-09-24T08:26:21.973Z,1004.41
2018-09-24T08:27:22.196Z,1004.52
2018-09-24T08:28:22.440Z,1004.43
2018-09-24T08:29:22.694Z,1004.45
2018-09-24T08:30:22.896Z,1004.48
2018-09-24T08:31:23.119Z,1004.54
2018-09-24T08:32:23.347Z,1004.54
2018-09-24T08:33:23.579Z,1004.46
2018-09-24T08:34:23.800Z,1004.49
2018-09-24T08:35:24.027Z,1004.45
2018-09-24T08:36:24.312Z,1004.49
2018-09-24T08:37:24.485Z,1004.48
2018-09-24T08:38:24.710Z,1004.49
2018-09-24T08:39:24.937Z,1004.51
2018-09-24T08:40:25.170Z,1004.50
2018-09-24T08:41:25.394Z,1004.47
2018-09-24T08:42:25.623Z,1004.46
2018-09-24T08:43:25.849Z,1004.43
2018-09-24T08:44:26.126Z,1004.43
2018-09-24T08:45:26.345Z,1004.52
2018-09-24T08:46:26.575Z,1004.52
2018-09-24T08:47:26.802Z,1004.52
2018-09-24T08:48:27.030Z,1004.56
2018-09-24T08:49:27.258Z,1004.58
2018-09-24T08:50:27.482Z,1004.55
2018-09-24T08:51:27.709Z,1004.58
2018-09-24T08:52:27.939Z,1004.62
2018-09-24T08:53:28.219Z,1004.56
2018-09-24T08:54:28.395Z,1004.60
2018-09-24T08:55:28.621Z,1004.64
2018-09-24T08:56:28.847Z,1004.60
2018-09-24T08:57:29.077Z,1004.65
2018-09-24T08:58:29.303Z,1004.67
2018-09-24T08:59:29.531Z,1004.63
2018-09-24T09:00:29.758Z,1004.72
2018-09-24T09:01:29.990Z,1004.65
2018-09-24T09:02:30.214Z,1004.75
2018-09-24T09:03:30.445Z,1004.70
2018-09-24T09:04:30.664Z,1004.68
2018-09-24T09:05:30.891Z,1004.63
2018-09-24T09:06:31.119Z,1004.66
2018-09-24T09:07:31.346Z,1004.63
2018-09-24T09:08:31.574Z,1004.72
2018-09-24T09:09:31.800Z,1004.69
2018-09-24T09:10:32.028Z,1004.77
2018-09-24T09:11:32.260Z,1004.73
2018-09-24T09:12:32.482Z,1004.80
2018-09-24T09:13:32.711Z,1004.73
2018-09-24T09:14:32.939Z,1004.88
2018-09-24T09:15:33.165Z,1004.80
2018-09-24T09:16:33.398Z,1004.81
2018-09-24T09:17:33.619Z,1004.88
2018-09-24T09:18:33.847Z,1004.86
2018-09-24T09:19:34.075Z,1004.84
2018-09-24T09:20:34.304Z,1004.91
2018-09-24T09:21:34.533Z,1004.88
2018-09-24T09:22:34.760Z,1004.92
2018-09-24T09:23:34.990Z,1004.81
2018-09-24T09:24:35.217Z,1004.84
2018-09-24T09:25:35.450Z,1004.85
2018-09-24T09:26:35.678Z,1004.86
2018-09-24T09:27:35.908Z,1004.89
2018-09-24T09:28:36.133Z,1004.92
2018-09-24T09:29:36.360Z,1004.95
2018-09-24T09:30:36.588Z,1004.92
2018-09-24T09:31:36.817Z,1004.94
2018-09-24T09:32:37.043Z,1004.94
2018-09-24T09:33:37.276Z,1004.95
2018-09-24T09:34:37.500Z,1004.97
2018-09-24T09:35:37.726Z,1005.09
2018-09-24T09:36:37.956Z,1005.03
2018-09-24T09:37:38.182Z,1005.03
2018-09-24T09:38:38.409Z,1005.06
2018-09-24T09:39:38.643Z,1005.06
2018-09-24T09:40:38.867Z,1005.07
2018-09-24T09:41:39.106Z,1005.04
2018-09-24T09:42:39.326Z,1005.04
2018-09-24T09:43:39.556Z,1005.09
2018-09-24T09:44:39.785Z,1005.06
2018-09-24T09:45:40.013Z,1005.04
2018-09-24T09:46:40.282Z,1005.01
2018-09-24T09:47:40.470Z,1005.06
2018-09-24T09:48:40.699Z,1005.03
2018-09-24T09:49:40.931Z,1005.04
2018-09-24T09:50:41.154Z,1005.11
2018-09-24T09:51:41.384Z,1005.10
2018-09-24T09:52:41.619Z,1005.17
2018-09-24T09:53:41.935Z,1005.23
2018-09-24T09:54:42.073Z,1005.10
2018-09-24T09:55:42.302Z,1005.15
2018-09-24T09:56:42.533Z,1005.10
2018-09-24T09:57:42.761Z,1005.07
2018-09-24T09:58:42.989Z,1005.10
2018-09-24T09:59:43.216Z,1005.09
2018-09-24T10:00:43.446Z,1005.11
2018-09-24T10:01:43.676Z,1005.06
2018-09-24T10:02:43.905Z,1005.08
2018-09-24T10:03:44.133Z,1005.06
2018-09-24T10:04:44.422Z,1005.13
2018-09-24T10:05:44.588Z,1005.06
2018-09-24T10:06:44.820Z,1005.13
2018-09-24T10:07:45.049Z,1005.17
2018-09-24T10:08:45.276Z,1005.13
2018-09-24T10:09:45.504Z,1005.14
2018-09-24T10:10:45.732Z,1005.09
2018-09-24T10:11:45.951Z,1005.15
2018-09-24T10:12:46.196Z,1005.21
2018-09-24T10:13:46.423Z,1005.20
2018-09-24T10:14:46.656Z,1005.16
2018-09-24T10:15:46.884Z,1005.15
2018-09-24T10:16:47.111Z,1005.23
2018-09-24T10:17:47.341Z,1005.18
2018-09-24T10:18:47.571Z,1005.34
2018-09-24T10:19:47.801Z,1005.24
2018-09-24T10:20:48.029Z,1005.27
2018-09-24T10:21:48.257Z,1005.31
2018-09-24T10:22:48.490Z,1005.23
2018-09-24T10:23:48.711Z,1005.32
2018-09-24T10:24:48.940Z,1005.31
2018-09-24T10:25:49.170Z,1005.27
2018-09-24T10:26:49.399Z,1005.31
2018-09-24T10:27:49.629Z,1005.29
2018-09-24T10:28:49.856Z,1005.27
2018-09-24T10:29:50.090Z,1005.25
2018-09-24T10:30:50.315Z,1005.19
2018-09-24T10:31:50.547Z,1005.26
2018-09-24T10:32:50.774Z,1005.31
2018-09-24T10:33:51.090Z,1005.32
2018-09-24T10:34:51.237Z,1005.26
2018-09-24T10:35:51.460Z,1005.23
2018-09-24T10:36:51.688Z,1005.28
2018-09-24T10:37:51.915Z,1005.28
2018-09-24T10:38:52.151Z,1005.23
2018-09-24T10:39:52.372Z,1005.22
2018-09-24T10:40:52.599Z,1005.25
2018-09-24T10:41:52.838Z,1005.30
2018-09-24T10:42:53.068Z,1005.29
2018-09-24T10:43:53.297Z,1005.27
2018-09-24T10:44:53.524Z,1005.17
2018-09-24T10:45:53.780Z,1005.24
2018-09-24T10:46:53.982Z,1005.27
2018-09-24T10:47:54.210Z,1005.21
2018-09-24T10:48:54.435Z,1005.21
2018-09-24T10:49:54.661Z,1005.18
2018-09-24T10:50:54.890Z,1005.13
2018-09-24T10:51:55.118Z,1005.18
2018-09-24T10:52:55.375Z,1005.17
2018-09-24T10:53:55.575Z,1005.15
2018-09-24T10:54:55.803Z,1005.20
2018-09-24T10:55:56.193Z,1005.19
2018-09-24T10:56:56.261Z,1005.20
2018-09-24T10:57:56.491Z,1005.22
2018-09-24T10:58:56.716Z,1005.21
2018-09-24T10:59:56.933Z,1005.23
2018-09-24T11:00:57.171Z,1005.22
2018-09-24T11:01:57.401Z,1005.23
2018-09-24T11:02:57.632Z,1005.19
2018-09-24T11:03:57.867Z,1005.29
2018-09-24T11:04:58.174Z,1005.22
2018-09-24T11:05:58.319Z,1005.14
2018-09-24T11:06:58.549Z,1005.23
2018-09-24T11:07:58.777Z,1005.25
2018-09-24T11:08:59.002Z,1005.18
2018-09-24T11:09:59.233Z,1005.20
2018-09-24T11:10:59.457Z,1005.28
2018-09-24T11:11:59.680Z,1005.28
2018-09-24T11:12:59.918Z,1005.33
2018-09-24T11:14:00.146Z,1005.33
2018-09-24T11:15:00.372Z,1005.35
2018-09-24T11:16:00.700Z,1005.32
2018-09-24T11:17:00.955Z,1005.25
2018-09-24T11:18:01.094Z,1005.30
2018-09-24T11:19:01.285Z,1005.29
2018-09-24T11:20:01.512Z,1005.24
2018-09-24T11:21:01.740Z,1005.25
2018-09-24T11:22:01.978Z,1005.25
2018-09-24T11:23:02.197Z,1005.24
2018-09-24T11:24:02.414Z,1005.22
2018-09-24T11:25:02.654Z,1005.13
2018-09-24T11:26:02.885Z,1005.17
2018-09-24T11:27:03.116Z,1005.22
2018-09-24T11:28:03.344Z,1005.21
2018-09-24T11:29:03.568Z,1005.27
2018-09-24T11:30:03.801Z,1005.24
2018-09-24T11:31:04.029Z,1005.28
2018-09-24T11:32:04.257Z,1005.31
2018-09-24T11:33:04.488Z,1005.36
2018-09-24T11:34:04.716Z,1005.34
2018-09-24T11:35:04.948Z,1005.30
2018-09-24T11:36:05.173Z,1005.28
2018-09-24T11:37:05.400Z,1005.31
2018-09-24T11:38:05.631Z,1005.30
2018-09-24T11:39:05.859Z,1005.31
2018-09-24T11:40:06.093Z,1005.27
2018-09-24T11:41:06.328Z,1005.27
2018-09-24T11:42:06.555Z,1005.25
2018-09-24T11:43:06.784Z,1005.23
2018-09-24T11:44:07.018Z,1005.26
2018-09-24T11:45:07.244Z,1005.29
2018-09-24T11:46:07.472Z,1005.22
2018-09-24T11:47:07.810Z,1005.27
2018-09-24T11:48:07.929Z,1005.27
2018-09-24T11:49:08.161Z,1005.27
2018-09-24T11:50:08.390Z,1005.26
2018-09-24T11:51:08.617Z,1005.30
2018-09-24T11:52:08.846Z,1005.29
2018-09-24T11:53:09.084Z,1005.31
2018-09-24T11:54:09.319Z,1005.31
2018-09-24T11:55:09.544Z,1005.36
2018-09-24T11:56:09.787Z,1005.32
2018-09-24T11:57:10.002Z,1005.39
2018-09-24T11:58:10.230Z,1005.33
2018-09-24T11:59:10.461Z,1005.36
2018-09-24T12:00:10.691Z,1005.37
2018-09-24T12:01:10.921Z,1005.41
2018-09-24T12:02:11.198Z,1005.43
2018-09-24T12:03:11.378Z,1005.43
2018-09-24T12:04:11.606Z,1005.37
2018-09-24T12:05:11.835Z,1005.37
2018-09-24T12:06:12.064Z,1005.37
2018-09-24T12:07:12.294Z,1005.38
2018-09-24T12:08:12.521Z,1005.31
2018-09-24T12:09:12.753Z,1005.31
2018-09-24T12:10:13.016Z,1005.32
2018-09-24T12:11:13.207Z,1005.29
2018-09-24T12:12:13.436Z,1005.25
2018-09-24T12:13:13.665Z,1005.34
2018-09-24T12:14:13.891Z,1005.31